Time;durP1;ratioP1;P1;durP2;ratioP2;P2;SDS_P1;SDS_P2;PMS_P1;PMS_P2;Temp;Humidity;BMP_temperature;BMP_pressure;BME280_temperature;BME280_humidity;BME280_pressure;Samples;Min_cycle;Max_cycle;Signal;HPM_P1;HPM_P2
2023/05/06 00:01:31;;;;;;;0.10;0.10;;;6.30;99.90;;;;;;5034983;28;20487;-74
2023/05/06 00:03:56;;;;;;;0.15;0.15;;;6.30;99.90;;;;;;5016421;28;20033;-74
2023/05/06 00:06:22;;;;;;;0.20;0.20;;;6.30;99.90;;;;;;5015236;28;20105;-73
2023/05/06 00:08:47;;;;;;;0.10;0.10;;;6.30;99.90;;;;;;5020995;28;20100;-74
2023/05/06 00:11:13;;;;;;;0.10;0.10;;;6.30;99.90;;;;;;5033556;28;20034;-73
2023/05/06 00:13:38;;;;;;;0.10;0.10;;;6.30;99.90;;;;;;5034469;28;20017;-73
2023/05/06 00:16:04;;;;;;;0.13;0.13;;;6.30;99.90;;;;;;5034498;28;20108;-74
2023/05/06 00:18:30;;;;;;;0.20;0.20;;;6.30;99.90;;;;;;5034913;28;20092;-74
2023/05/06 00:20:55;;;;;;;0.20;0.20;;;6.30;99.90;;;;;;5034529;28;20064;-74
2023/05/06 00:23:21;;;;;;;0.20;0.20;;;6.40;99.90;;;;;;5023680;28;20029;-74
2023/05/06 00:25:46;;;;;;;0.20;0.20;;;6.30;99.90;;;;;;5014132;28;20034;-74
2023/05/06 00:28:12;;;;;;;0.10;0.10;;;6.40;99.90;;;;;;5014108;28;20025;-74
2023/05/06 00:30:37;;;;;;;0.10;0.10;;;6.40;99.90;;;;;;5014532;28;20365;-74
2023/05/06 00:33:03;;;;;;;0.25;0.25;;;6.40;99.90;;;;;;5014359;28;20076;-74
2023/05/06 00:35:29;;;;;;;0.10;0.10;;;6.40;99.90;;;;;;5013942;28;20022;-74
2023/05/06 00:38:12;;;;;;;0.10;0.10;;;6.30;99.90;;;;;;5014480;28;20033;-73
2023/05/06 00:40:38;;;;;;;0.30;0.30;;;6.40;99.90;;;;;;5014544;28;20526;-73
2023/05/06 00:43:03;;;;;;;0.15;0.15;;;6.40;99.90;;;;;;5014929;28;20034;-74
2023/05/06 00:45:29;;;;;;;0.20;0.20;;;6.40;99.90;;;;;;5013763;28;20104;-74
2023/05/06 00:47:56;;;;;;;0.20;0.20;;;6.40;99.90;;;;;;5014302;28;20037;-74
2023/05/06 00:50:23;;;;;;;0.10;0.10;;;6.40;99.90;;;;;;5014039;28;20491;-73
2023/05/06 00:52:49;;;;;;;0.17;0.17;;;6.40;99.90;;;;;;5014050;28;20498;-73
2023/05/06 00:55:15;;;;;;;0.10;0.10;;;6.40;99.90;;;;;;5014111;28;20056;-74
2023/05/06 00:57:41;;;;;;;0.10;0.10;;;6.40;99.90;;;;;;5013688;28;20041;-73
2023/05/06 01:00:07;;;;;;;0.20;0.20;;;6.40;99.90;;;;;;5014052;28;20018;-73
2023/05/06 01:02:33;;;;;;;0.10;0.10;;;6.40;99.90;;;;;;5014109;28;20036;-74
2023/05/06 01:04:59;;;;;;;0.20;0.20;;;6.40;99.90;;;;;;5013867;28;20403;-74
2023/05/06 01:07:37;;;;;;;0.20;0.20;;;6.40;99.90;;;;;;5013437;28;20079;-74
2023/05/06 01:10:34;;;;;;;0.10;0.10;;;6.40;99.90;;;;;;5013956;28;20447;-74
2023/05/06 01:13:13;;;;;;;0.10;0.10;;;6.50;99.90;;;;;;5013822;28;20034;-74
2023/05/06 01:15:48;;;;;;;0.20;0.20;;;6.50;99.90;;;;;;5013770;28;20021;-74
2023/05/06 01:18:21;;;;;;;0.10;0.10;;;6.50;99.90;;;;;;5013479;28;20046;-73
2023/05/06 01:20:50;;;;;;;0.17;0.17;;;6.50;99.90;;;;;;5013697;28;20018;-73
2023/05/06 01:23:16;;;;;;;0.10;0.10;;;6.50;99.90;;;;;;5013763;28;20017;-74
2023/05/06 01:25:41;;;;;;;0.20;0.20;;;6.50;99.90;;;;;;5013616;28;20096;-74
2023/05/06 01:28:11;;;;;;;0.20;0.20;;;6.50;99.90;;;;;;5013591;28;20037;-74
2023/05/06 01:30:58;;;;;;;0.10;0.10;;;6.50;99.90;;;;;;5013666;28;20046;-74
2023/05/06 01:33:51;;;;;;;0.20;0.20;;;6.50;99.90;;;;;;5013087;28;20030;-73
2023/05/06 01:36:42;;;;;;;0.10;0.10;;;6.50;99.90;;;;;;5013779;28;20026;-73
2023/05/06 01:39:23;;;;;;;0.10;0.10;;;6.50;99.90;;;;;;5012842;28;20034;-73
2023/05/06 01:41:50;;;;;;;0.30;0.30;;;6.50;99.90;;;;;;5013657;28;20076;-74
2023/05/06 01:44:20;;;;;;;0.20;0.20;;;6.50;99.90;;;;;;5013642;28;20025;-73
2023/05/06 01:46:47;;;;;;;0.20;0.20;;;6.60;99.90;;;;;;5013010;28;20108;-74
2023/05/06 01:49:14;;;;;;;0.20;0.20;;;6.50;99.90;;;;;;5013374;28;20033;-73
2023/05/06 01:51:45;;;;;;;0.10;0.10;;;6.50;99.90;;;;;;5013276;28;20029;-73
2023/05/06 01:54:11;;;;;;;0.20;0.20;;;6.60;99.90;;;;;;5013609;28;20052;-73
2023/05/06 01:56:36;;;;;;;0.20;0.20;;;6.60;99.90;;;;;;5013604;28;20419;-73
2023/05/06 01:59:02;;;;;;;0.10;0.10;;;6.60;99.90;;;;;;5013247;28;20056;-73
2023/05/06 02:01:27;;;;;;;0.20;0.20;;;6.60;99.90;;;;;;5012730;28;20061;-73
2023/05/06 02:03:53;;;;;;;0.20;0.20;;;6.50;99.90;;;;;;5013133;28;20042;-73
2023/05/06 02:06:18;;;;;;;0.20;0.20;;;6.60;99.90;;;;;;5013831;28;20081;-73
2023/05/06 02:08:44;;;;;;;0.10;0.10;;;6.60;99.90;;;;;;5013138;28;20040;-73
2023/05/06 02:11:09;;;;;;;0.20;0.20;;;6.60;99.90;;;;;;5013106;28;20029;-73
2023/05/06 02:13:35;;;;;;;0.20;0.20;;;6.60;99.90;;;;;;5013013;28;20024;-73
2023/05/06 02:16:01;;;;;;;0.10;0.10;;;6.60;99.90;;;;;;5012671;28;20030;-73
2023/05/06 02:18:27;;;;;;;0.10;0.10;;;6.50;99.90;;;;;;5013257;28;20028;-73
2023/05/06 02:20:52;;;;;;;0.15;0.15;;;6.60;99.90;;;;;;5013076;28;20026;-74
2023/05/06 02:23:18;;;;;;;0.10;0.10;;;6.60;99.90;;;;;;5021162;28;20044;-73
2023/05/06 02:25:44;;;;;;;0.10;0.10;;;6.60;99.90;;;;;;5012348;28;20591;-73
2023/05/06 02:28:09;;;;;;;0.13;0.13;;;6.60;99.90;;;;;;5006254;28;20117;-73
2023/05/06 02:30:35;;;;;;;0.20;0.20;;;6.60;99.90;;;;;;5026067;28;20048;-73
2023/05/06 02:33:01;;;;;;;0.10;0.10;;;6.60;99.90;;;;;;5031664;28;20029;-73
2023/05/06 02:35:26;;;;;;;0.20;0.20;;;6.60;99.90;;;;;;5017068;28;20032;-73
2023/05/06 02:37:52;;;;;;;0.10;0.10;;;6.60;99.90;;;;;;5012807;28;20034;-73
2023/05/06 02:40:17;;;;;;;0.20;0.20;;;6.60;99.90;;;;;;5031676;28;20021;-73
2023/05/06 02:42:43;;;;;;;0.10;0.10;;;6.60;99.90;;;;;;5030890;28;20026;-73
2023/05/06 02:45:09;;;;;;;0.20;0.20;;;6.60;99.90;;;;;;5014639;28;20096;-73
2023/05/06 02:47:34;;;;;;;0.10;0.10;;;6.60;99.90;;;;;;5012223;28;20037;-73
2023/05/06 02:50:00;;;;;;;0.10;0.10;;;6.60;99.90;;;;;;5013281;28;20026;-73
2023/05/06 02:52:25;;;;;;;0.20;0.20;;;6.60;99.90;;;;;;5016353;28;20030;-73
2023/05/06 02:54:51;;;;;;;0.10;0.10;;;6.60;99.90;;;;;;5016499;28;20072;-73
2023/05/06 02:57:17;;;;;;;0.10;0.10;;;6.60;99.90;;;;;;5028721;28;20025;-73
2023/05/06 02:59:42;;;;;;;0.20;0.20;;;6.60;99.90;;;;;;5036156;28;20022;-73
2023/05/06 03:02:08;;;;;;;0.13;0.13;;;6.60;99.90;;;;;;5036023;28;20036;-74
2023/05/06 03:04:34;;;;;;;0.10;0.10;;;6.60;99.90;;;;;;5035549;28;20430;-73
2023/05/06 03:07:00;;;;;;;0.10;0.10;;;6.60;99.90;;;;;;5035926;28;20100;-73
2023/05/06 03:09:25;;;;;;;0.13;0.13;;;6.60;99.90;;;;;;5035466;28;20033;-74
2023/05/06 03:11:51;;;;;;;0.13;0.13;;;6.60;99.90;;;;;;5035629;28;20446;-73
2023/05/06 03:14:16;;;;;;;0.17;0.17;;;6.60;99.90;;;;;;5035600;28;20052;-73
2023/05/06 03:16:42;;;;;;;0.10;0.10;;;6.60;99.90;;;;;;5035683;28;20051;-73
2023/05/06 03:19:07;;;;;;;0.20;0.20;;;6.60;99.90;;;;;;5035030;28;20457;-73
2023/05/06 03:21:33;;;;;;;0.10;0.10;;;6.60;99.90;;;;;;5035572;28;20028;-73
2023/05/06 03:23:58;;;;;;;0.20;0.20;;;6.60;99.90;;;;;;5035569;28;20372;-73
2023/05/06 03:26:24;;;;;;;0.20;0.20;;;6.60;99.90;;;;;;5035423;28;20483;-73
2023/05/06 03:28:50;;;;;;;0.20;0.20;;;6.60;99.90;;;;;;5035265;28;20029;-73
2023/05/06 03:31:15;;;;;;;0.17;0.17;;;6.60;99.90;;;;;;5035396;28;20036;-73
2023/05/06 03:33:41;;;;;;;0.13;0.13;;;6.60;99.90;;;;;;5034771;28;20602;-72
2023/05/06 03:36:07;;;;;;;0.10;0.10;;;6.60;99.90;;;;;;5034647;28;20221;-72
2023/05/06 03:38:32;;;;;;;0.10;0.10;;;6.60;99.90;;;;;;5023092;28;20018;-73
2023/05/06 03:40:58;;;;;;;0.20;0.20;;;6.60;99.90;;;;;;5032031;28;20519;-73
2023/05/06 03:43:23;;;;;;;0.10;0.10;;;6.60;99.90;;;;;;5015406;28;20140;-73
2023/05/06 03:45:49;;;;;;;0.20;0.20;;;6.60;99.90;;;;;;5015169;28;20018;-73
2023/05/06 03:48:15;;;;;;;0.15;0.15;;;6.60;99.90;;;;;;5014813;28;20434;-73
2023/05/06 03:50:41;;;;;;;0.20;0.20;;;6.60;99.90;;;;;;5018559;28;20014;-73
2023/05/06 03:53:06;;;;;;;0.20;0.20;;;6.60;99.90;;;;;;5034858;28;20048;-72
2023/05/06 03:55:32;;;;;;;0.10;0.10;;;6.60;99.90;;;;;;5021991;28;20025;-73
2023/05/06 03:57:58;;;;;;;0.20;0.20;;;6.60;99.90;;;;;;5026469;28;20029;-73
2023/05/06 04:00:23;;;;;;;0.20;0.20;;;6.60;99.90;;;;;;5026445;28;20026;-73
2023/05/06 04:02:49;;;;;;;0.10;0.10;;;6.60;99.90;;;;;;5033745;28;20104;-73
2023/05/06 04:05:15;;;;;;;0.20;0.20;;;6.60;99.90;;;;;;5016857;28;20109;-73
2023/05/06 04:07:40;;;;;;;0.10;0.10;;;6.60;99.90;;;;;;5034705;28;20479;-73
2023/05/06 04:10:06;;;;;;;0.17;0.17;;;6.60;99.90;;;;;;5034755;28;20086;-73
2023/05/06 04:12:33;;;;;;;0.20;0.20;;;6.60;99.90;;;;;;5034531;28;20029;-73
2023/05/06 04:14:58;;;;;;;0.20;0.20;;;6.60;99.90;;;;;;5033958;28;20095;-72
2023/05/06 04:17:24;;;;;;;0.20;0.20;;;6.60;99.90;;;;;;5034650;28;20021;-73
2023/05/06 04:19:49;;;;;;;0.20;0.20;;;6.60;99.90;;;;;;5034524;28;20033;-73
2023/05/06 04:22:16;;;;;;;0.10;0.10;;;6.60;99.90;;;;;;5024924;28;20037;-73
2023/05/06 04:24:44;;;;;;;0.17;0.17;;;6.60;99.90;;;;;;5027866;28;20044;-73
2023/05/06 04:27:10;;;;;;;0.20;0.20;;;6.60;99.90;;;;;;5014066;28;20022;-73
2023/05/06 04:29:36;;;;;;;0.20;0.20;;;6.60;99.90;;;;;;5014516;28;20052;-73
2023/05/06 04:32:01;;;;;;;0.10;0.10;;;6.60;99.90;;;;;;5014542;28;20026;-74
2023/05/06 04:34:27;;;;;;;0.25;0.25;;;6.60;99.90;;;;;;5030361;28;20526;-73
2023/05/06 04:36:53;;;;;;;0.20;0.20;;;6.60;99.90;;;;;;5034618;28;20040;-74
2023/05/06 04:39:19;;;;;;;0.20;0.20;;;6.60;99.90;;;;;;5034019;28;20021;-74
2023/05/06 04:41:44;;;;;;;0.10;0.10;;;6.60;99.90;;;;;;5033702;28;20049;-74
2023/05/06 04:44:10;;;;;;;0.10;0.10;;;6.60;99.90;;;;;;5034025;28;20025;-74
2023/05/06 04:46:36;;;;;;;0.10;0.10;;;6.60;99.90;;;;;;5034417;28;20029;-74
2023/05/06 04:49:01;;;;;;;0.10;0.10;;;6.60;99.90;;;;;;5034000;28;20483;-74
2023/05/06 04:51:27;;;;;;;0.10;0.10;;;6.60;99.90;;;;;;5033869;28;20034;-73
2023/05/06 04:53:52;;;;;;;0.10;0.10;;;6.60;99.90;;;;;;5033837;28;20030;-74
2023/05/06 04:56:18;;;;;;;0.20;0.20;;;6.60;99.90;;;;;;5031340;28;20538;-74
2023/05/06 04:58:43;;;;;;;0.10;0.10;;;6.60;99.90;;;;;;5014116;28;20377;-74
2023/05/06 05:01:10;;;;;;;0.20;0.20;;;6.60;99.90;;;;;;5024121;28;20026;-74
2023/05/06 05:03:36;;;;;;;0.10;0.10;;;6.70;99.90;;;;;;5010290;28;20021;-73
2023/05/06 05:06:01;;;;;;;0.20;0.20;;;6.60;99.90;;;;;;5032265;28;20033;-74
2023/05/06 05:08:27;;;;;;;0.20;0.20;;;6.60;99.90;;;;;;5016049;28;20551;-74
2023/05/06 05:10:52;;;;;;;0.10;0.10;;;6.60;99.90;;;;;;5013719;28;20037;-74
2023/05/06 05:13:18;;;;;;;0.10;0.10;;;6.60;99.90;;;;;;5012368;28;20381;-74
2023/05/06 05:15:44;;;;;;;0.20;0.20;;;6.70;99.90;;;;;;5013296;28;20518;-74
2023/05/06 05:18:10;;;;;;;0.10;0.10;;;6.60;99.90;;;;;;5014075;28;20025;-74
2023/05/06 05:20:35;;;;;;;0.20;0.20;;;6.70;99.90;;;;;;5016242;28;20024;-74
2023/05/06 05:23:01;;;;;;;0.20;0.20;;;6.70;99.90;;;;;;5033476;28;20041;-74
2023/05/06 05:25:26;;;;;;;0.10;0.10;;;6.70;99.90;;;;;;5032859;28;20029;-74
2023/05/06 05:27:52;;;;;;;0.10;0.10;;;6.70;99.90;;;;;;5033275;28;20448;-74
2023/05/06 05:30:18;;;;;;;0.10;0.10;;;6.70;99.90;;;;;;5033125;28;20545;-74
2023/05/06 05:32:43;;;;;;;0.20;0.20;;;6.70;99.90;;;;;;5033226;28;20033;-74
2023/05/06 05:35:09;;;;;;;0.20;0.20;;;6.70;99.90;;;;;;5033192;28;20018;-74
2023/05/06 05:37:35;;;;;;;0.17;0.17;;;6.70;99.90;;;;;;5032788;28;20028;-74
2023/05/06 05:40:01;;;;;;;0.20;0.20;;;6.70;99.90;;;;;;5033156;28;20017;-74
2023/05/06 05:42:26;;;;;;;0.10;0.10;;;6.70;99.90;;;;;;5033211;28;20040;-74
2023/05/06 05:44:52;;;;;;;0.10;0.10;;;6.80;99.90;;;;;;5032998;28;20026;-74
2023/05/06 05:47:18;;;;;;;0.20;0.20;;;6.80;99.90;;;;;;5033107;28;20029;-74
2023/05/06 05:49:43;;;;;;;0.10;0.10;;;6.80;99.90;;;;;;5032659;28;20368;-74
2023/05/06 05:52:09;;;;;;;0.17;0.17;;;6.80;99.90;;;;;;5032955;28;20099;-74
2023/05/06 05:54:34;;;;;;;0.20;0.20;;;6.80;99.90;;;;;;5032936;28;20051;-74
2023/05/06 05:57:00;;;;;;;0.20;0.20;;;6.80;99.90;;;;;;5015135;28;20036;-74
2023/05/06 05:59:26;;;;;;;0.20;0.20;;;6.80;99.90;;;;;;5033281;28;20025;-74
2023/05/06 06:01:51;;;;;;;0.20;0.20;;;6.90;99.90;;;;;;5026257;28;20404;-73
2023/05/06 06:04:17;;;;;;;0.20;0.20;;;6.80;99.90;;;;;;5012923;28;20418;-74
2023/05/06 06:06:42;;;;;;;0.20;0.20;;;6.80;99.90;;;;;;5031909;28;20507;-74
2023/05/06 06:09:09;;;;;;;0.10;0.10;;;6.80;99.90;;;;;;5030567;28;20025;-74
2023/05/06 06:11:35;;;;;;;0.20;0.20;;;6.90;99.90;;;;;;5021187;28;20049;-74
2023/05/06 06:14:00;;;;;;;0.20;0.20;;;6.90;99.90;;;;;;5015745;28;20060;-74
2023/05/06 06:16:26;;;;;;;0.20;0.20;;;6.90;99.90;;;;;;5013457;28;20033;-74
2023/05/06 06:18:52;;;;;;;0.20;0.20;;;6.90;99.90;;;;;;5013083;28;20053;-74
2023/05/06 06:21:18;;;;;;;0.20;0.20;;;6.90;99.90;;;;;;5013295;28;20145;-74
2023/05/06 06:23:43;;;;;;;0.30;0.30;;;6.90;99.90;;;;;;5020635;28;20041;-73
2023/05/06 06:26:09;;;;;;;0.15;0.15;;;6.90;99.90;;;;;;5035361;28;20101;-73
2023/05/06 06:28:35;;;;;;;0.20;0.20;;;6.90;99.90;;;;;;5036920;28;20427;-74
2023/05/06 06:31:00;;;;;;;0.20;0.20;;;7.00;99.90;;;;;;5036689;28;20108;-74
2023/05/06 06:33:26;;;;;;;0.20;0.20;;;7.00;99.90;;;;;;5036387;28;20059;-74
2023/05/06 06:35:52;;;;;;;0.10;0.10;;;7.00;99.90;;;;;;5036518;28;20022;-74
2023/05/06 06:38:17;;;;;;;0.20;0.20;;;7.00;99.90;;;;;;5035873;28;20029;-73
2023/05/06 06:40:43;;;;;;;0.20;0.20;;;7.10;99.90;;;;;;5028123;28;20546;-74
2023/05/06 06:43:08;;;;;;;0.20;0.20;;;7.10;99.90;;;;;;5032122;28;20026;-73
2023/05/06 06:45:34;;;;;;;0.20;0.20;;;7.10;99.90;;;;;;5035351;28;20059;-74
2023/05/06 06:48:00;;;;;;;0.20;0.20;;;7.10;99.90;;;;;;5036528;28;20032;-73
2023/05/06 06:50:25;;;;;;;0.13;0.13;;;7.20;99.90;;;;;;5036345;28;20022;-74
2023/05/06 06:52:51;;;;;;;0.15;0.15;;;7.20;99.90;;;;;;5018367;28;20029;-74
2023/05/06 06:55:17;;;;;;;0.20;0.20;;;7.30;99.90;;;;;;5036188;28;20025;-74
2023/05/06 06:57:42;;;;;;;0.20;0.20;;;7.30;99.90;;;;;;5035591;28;20446;-73
2023/05/06 07:00:09;;;;;;;0.10;0.10;;;7.30;99.90;;;;;;5036158;28;20557;-74
2023/05/06 07:02:34;;;;;;;0.20;0.20;;;7.40;99.90;;;;;;5036038;28;20028;-74
2023/05/06 07:05:00;;;;;;;0.20;0.20;;;7.40;99.90;;;;;;5035857;28;20546;-74
2023/05/06 07:07:25;;;;;;;0.20;0.20;;;7.40;99.90;;;;;;5035971;28;20076;-73
2023/05/06 07:09:51;;;;;;;0.20;0.20;;;7.40;99.90;;;;;;5035418;28;20029;-74
2023/05/06 07:12:16;;;;;;;0.13;0.13;;;7.40;99.90;;;;;;5036111;28;20033;-73
2023/05/06 07:14:42;;;;;;;0.20;0.20;;;7.40;99.90;;;;;;5035741;28;20029;-73
2023/05/06 07:17:07;;;;;;;0.10;0.10;;;7.40;99.90;;;;;;5035394;28;20026;-74
2023/05/06 07:19:33;;;;;;;0.10;0.10;;;7.40;99.90;;;;;;5035756;28;20026;-73
2023/05/06 07:22:01;;;;;;;0.20;0.20;;;7.40;99.90;;;;;;5036031;28;20056;-73
2023/05/06 07:24:26;;;;;;;0.17;0.17;;;7.40;99.90;;;;;;5035553;28;20017;-73
2023/05/06 07:26:52;;;;;;;0.20;0.20;;;7.40;99.90;;;;;;5035649;28;20353;-73
2023/05/06 07:29:17;;;;;;;0.20;0.20;;;7.40;99.90;;;;;;5035806;28;20056;-74
2023/05/06 07:31:43;;;;;;;0.20;0.20;;;7.50;99.90;;;;;;5035167;28;20029;-74
2023/05/06 07:34:09;;;;;;;0.20;0.20;;;7.50;99.90;;;;;;5035390;28;20028;-74
2023/05/06 07:36:39;;;;;;;0.20;0.20;;;7.60;99.90;;;;;;5034483;28;20018;-74
2023/05/06 07:39:07;;;;;;;0.20;0.20;;;7.60;99.90;;;;;;5035012;28;20018;-74
2023/05/06 07:41:33;;;;;;;0.20;0.20;;;7.60;99.90;;;;;;5035674;28;20088;-74
2023/05/06 07:43:58;;;;;;;0.20;0.20;;;7.60;99.90;;;;;;5035334;28;20041;-75
2023/05/06 07:46:24;;;;;;;0.13;0.13;;;7.60;99.90;;;;;;5035269;28;20032;-74
2023/05/06 07:48:50;;;;;;;0.10;0.10;;;7.70;99.90;;;;;;5035439;28;20026;-74
2023/05/06 07:51:16;;;;;;;0.10;0.10;;;7.70;99.90;;;;;;5034651;28;20036;-74
2023/05/06 07:53:42;;;;;;;0.13;0.13;;;7.80;99.90;;;;;;5035040;28;20017;-74
2023/05/06 07:56:07;;;;;;;0.20;0.20;;;7.80;99.90;;;;;;5035102;28;20083;-74
2023/05/06 07:58:33;;;;;;;0.20;0.20;;;7.70;99.90;;;;;;5034602;28;20029;-73
2023/05/06 08:00:58;;;;;;;0.10;0.10;;;7.60;99.90;;;;;;5035069;28;20094;-74
2023/05/06 08:03:24;;;;;;;0.20;0.20;;;7.70;99.90;;;;;;5035163;28;20532;-74
2023/05/06 08:05:50;;;;;;;0.20;0.20;;;7.80;99.90;;;;;;5120785;23;20049;-74
2023/05/06 08:08:17;;;;;;;0.10;0.10;;;7.80;99.90;;;;;;5034775;28;20028;-74
2023/05/06 08:10:43;;;;;;;0.25;0.25;;;7.80;99.90;;;;;;5034375;28;20033;-75
2023/05/06 08:13:10;;;;;;;0.10;0.10;;;7.70;99.90;;;;;;5011630;28;20037;-73
2023/05/06 08:15:36;;;;;;;0.10;0.10;;;7.80;99.90;;;;;;5005162;28;20026;-73
2023/05/06 08:18:01;;;;;;;0.10;0.10;;;7.70;99.90;;;;;;5046917;28;20040;-74
2023/05/06 08:20:27;;;;;;;0.10;0.10;;;7.70;99.90;;;;;;5045865;28;20441;-74
2023/05/06 08:22:53;;;;;;;0.10;0.10;;;7.80;99.90;;;;;;5054439;28;20522;-75
2023/05/06 08:25:18;;;;;;;0.10;0.10;;;7.80;99.90;;;;;;5054356;28;20036;-75
2023/05/06 08:27:44;;;;;;;0.20;0.20;;;7.80;99.90;;;;;;5048600;28;20099;-74
2023/05/06 08:30:11;;;;;;;0.17;0.17;;;7.80;99.90;;;;;;5033791;28;20052;-75
2023/05/06 08:32:37;;;;;;;0.20;0.20;;;7.80;99.90;;;;;;5034256;28;20120;-74
2023/05/06 08:35:03;;;;;;;0.20;0.20;;;7.90;99.90;;;;;;5033896;28;20025;-75
2023/05/06 08:37:29;;;;;;;0.10;0.10;;;7.90;99.90;;;;;;5047266;28;20036;-75
2023/05/06 08:39:55;;;;;;;0.10;0.10;;;7.90;99.90;;;;;;5028371;28;20069;-75
2023/05/06 08:42:23;;;;;;;0.10;0.10;;;8.00;99.90;;;;;;5034146;28;20072;-74
2023/05/06 08:44:50;;;;;;;0.20;0.20;;;8.00;99.90;;;;;;5033965;28;20039;-74
2023/05/06 08:47:16;;;;;;;0.20;0.20;;;8.10;99.90;;;;;;5038047;28;20043;-74
2023/05/06 08:49:41;;;;;;;0.20;0.20;;;8.10;99.90;;;;;;5053645;28;20445;-75
2023/05/06 08:52:07;;;;;;;0.20;0.20;;;8.10;99.90;;;;;;5045910;28;20073;-74
2023/05/06 08:54:35;;;;;;;0.13;0.13;;;8.20;99.90;;;;;;5030576;28;20029;-75
2023/05/06 08:57:05;;;;;;;0.10;0.10;;;8.20;99.90;;;;;;5035096;28;20100;-74
2023/05/06 08:59:32;;;;;;;0.10;0.10;;;8.30;99.90;;;;;;5019802;28;20022;-74
2023/05/06 09:02:01;;;;;;;0.20;0.20;;;8.30;99.90;;;;;;5015858;28;20028;-75
2023/05/06 09:04:27;;;;;;;0.10;0.10;;;8.40;99.90;;;;;;5033781;28;20554;-74
2023/05/06 09:06:53;;;;;;;0.10;0.10;;;8.50;99.90;;;;;;5033440;28;20144;-75
2023/05/06 09:09:18;;;;;;;0.20;0.20;;;8.40;99.90;;;;;;5033708;28;20033;-74
2023/05/06 09:11:44;;;;;;;0.10;0.10;;;8.40;99.90;;;;;;5036818;28;20029;-75
2023/05/06 09:14:15;;;;;;;0.20;0.20;;;8.50;99.90;;;;;;5035169;28;20060;-75
2023/05/06 09:16:43;;;;;;;0.10;0.10;;;8.50;99.90;;;;;;5053301;28;20021;-75
2023/05/06 09:19:09;;;;;;;0.20;0.20;;;8.50;99.90;;;;;;5053251;28;20071;-75
2023/05/06 09:21:37;;;;;;;0.20;0.20;;;8.50;99.90;;;;;;5051177;28;20048;-74
2023/05/06 09:24:05;;;;;;;0.10;0.10;;;8.40;99.90;;;;;;5038119;28;20417;-75
2023/05/06 09:26:31;;;;;;;0.10;0.10;;;8.40;99.90;;;;;;5033228;28;20017;-75
2023/05/06 09:28:58;;;;;;;0.20;0.20;;;8.40;99.90;;;;;;5033140;28;20029;-75
2023/05/06 09:31:25;;;;;;;0.20;0.20;;;8.40;99.90;;;;;;5024573;28;20487;-75
2023/05/06 09:33:52;;;;;;;0.15;0.15;;;8.40;99.90;;;;;;5032799;28;20022;-74
2023/05/06 09:36:18;;;;;;;0.20;0.20;;;8.40;99.90;;;;;;5033145;28;20022;-75
2023/05/06 09:38:43;;;;;;;0.20;0.20;;;8.50;99.90;;;;;;5031933;28;20083;-75
2023/05/06 09:41:11;;;;;;;0.15;0.15;;;8.50;99.90;;;;;;5035780;28;20439;-75
2023/05/06 09:43:40;;;;;;;0.10;0.10;;;8.60;99.90;;;;;;5052991;28;20110;-75
2023/05/06 09:46:07;;;;;;;0.20;0.20;;;8.60;99.90;;;;;;5052920;28;20096;-75
2023/05/06 09:48:34;;;;;;;0.20;0.20;;;8.70;99.90;;;;;;5052098;28;20024;-75
2023/05/06 09:51:00;;;;;;;0.20;0.20;;;8.80;99.90;;;;;;5044365;28;20037;-75
2023/05/06 09:53:26;;;;;;;0.20;0.20;;;8.80;99.90;;;;;;5035504;28;20026;-75
2023/05/06 09:55:55;;;;;;;0.10;0.10;;;8.80;99.90;;;;;;5025166;28;20013;-75
2023/05/06 09:58:21;;;;;;;0.20;0.20;;;8.80;99.90;;;;;;5053191;28;20013;-75
2023/05/06 10:00:48;;;;;;;0.10;0.10;;;8.80;99.90;;;;;;5051546;28;20033;-75
2023/05/06 10:03:15;;;;;;;0.10;0.10;;;8.80;99.90;;;;;;5035918;28;20071;-75
2023/05/06 10:05:43;;;;;;;0.10;0.10;;;8.80;99.90;;;;;;5032543;28;20490;-75
2023/05/06 10:08:09;;;;;;;0.20;0.20;;;8.80;99.90;;;;;;5052387;28;20109;-75
2023/05/06 10:10:40;;;;;;;0.10;0.10;;;8.90;99.90;;;;;;5052794;28;20099;-75
2023/05/06 10:13:06;;;;;;;0.20;0.20;;;8.90;99.90;;;;;;5052968;28;20419;-75
2023/05/06 10:15:32;;;;;;;0.20;0.20;;;8.80;99.90;;;;;;5052666;28;20067;-75
2023/05/06 10:18:00;;;;;;;0.10;0.10;;;8.80;99.90;;;;;;5052765;28;20025;-75
2023/05/06 10:20:29;;;;;;;0.20;0.20;;;8.80;99.90;;;;;;5052043;28;20013;-75
2023/05/06 10:23:13;;;;;;;0.10;0.10;;;9.00;99.90;;;;;;5052675;28;20032;-75
2023/05/06 10:25:43;;;;;;;0.15;0.15;;;9.00;99.90;;;;;;5032675;28;20048;-75
2023/05/06 10:28:11;;;;;;;0.10;0.10;;;9.00;99.90;;;;;;5037041;28;20112;-75
2023/05/06 10:30:38;;;;;;;0.10;0.10;;;9.10;99.90;;;;;;5032166;28;20056;-75
2023/05/06 10:33:08;;;;;;;0.10;0.10;;;9.10;99.90;;;;;;5044249;28;20040;-75
2023/05/06 10:35:40;;;;;;;0.20;0.20;;;9.00;99.90;;;;;;5051785;28;20060;-75
2023/05/06 10:38:25;;;;;;;0.10;0.10;;;9.10;99.90;;;;;;5031494;28;20033;-75
2023/05/06 10:40:52;;;;;;;0.10;0.10;;;9.10;99.90;;;;;;5032794;28;20013;-76
2023/05/06 10:43:26;;;;;;;0.10;0.10;;;9.00;99.90;;;;;;5031975;28;20025;-75
2023/05/06 10:45:59;;;;;;;0.20;0.20;;;9.10;99.90;;;;;;5014593;28;20083;-76
2023/05/06 10:48:24;;;;;;;0.10;0.10;;;9.10;99.90;;;;;;5032593;28;20025;-75
2023/05/06 10:50:50;;;;;;;0.20;0.20;;;9.20;99.90;;;;;;5037580;28;20028;-76
2023/05/06 10:53:15;;;;;;;0.20;0.20;;;9.10;99.90;;;;;;5051735;28;20082;-75
2023/05/06 10:55:41;;;;;;;0.15;0.15;;;9.00;99.90;;;;;;5034393;28;20111;-75
2023/05/06 10:58:09;;;;;;;0.10;0.10;;;9.00;99.90;;;;;;5052672;28;20148;-75
2023/05/06 11:00:35;;;;;;;0.10;0.10;;;9.00;99.90;;;;;;5034343;28;20394;-76
2023/05/06 11:03:11;;;;;;;0.20;0.20;;;9.00;99.90;;;;;;5038408;28;20026;-75
2023/05/06 11:05:51;;;;;;;0.13;0.13;;;8.90;99.90;;;;;;5040184;28;20379;-74
2023/05/06 11:08:22;;;;;;;0.15;0.15;;;8.80;99.90;;;;;;5035492;28;20044;-73
2023/05/06 11:10:47;;;;;;;0.20;0.20;;;8.80;99.90;;;;;;5038970;28;20044;-74
2023/05/06 11:13:27;;;;;;;0.20;0.20;;;8.80;99.90;;;;;;5043025;28;20037;-73
2023/05/06 11:15:54;;;;;;;0.17;0.17;;;8.80;99.90;;;;;;5040629;28;20021;-73
2023/05/06 11:18:35;;;;;;;0.15;0.15;;;8.80;99.90;;;;;;5044269;28;20486;-74
2023/05/06 11:21:01;;;;;;;0.10;0.10;;;8.80;99.90;;;;;;5047498;28;20051;-73
2023/05/06 11:23:48;;;;;;;0.20;0.20;;;8.80;99.90;;;;;;5042500;28;20033;-74
2023/05/06 11:26:14;;;;;;;0.20;0.20;;;8.80;99.90;;;;;;5042275;28;20441;-74
2023/05/06 11:28:49;;;;;;;0.20;0.20;;;8.90;99.90;;;;;;5029183;28;20519;-75
2023/05/06 11:31:15;;;;;;;0.10;0.10;;;8.90;99.90;;;;;;5045021;28;20029;-74
2023/05/06 11:33:45;;;;;;;0.20;0.20;;;8.90;99.90;;;;;;5037161;28;20025;-74
2023/05/06 11:36:18;;;;;;;0.20;0.20;;;8.90;99.90;;;;;;5042131;28;20030;-74
2023/05/06 11:38:48;;;;;;;0.10;0.10;;;8.90;99.90;;;;;;5040574;28;20025;-75
2023/05/06 11:41:14;;;;;;;0.20;0.20;;;8.90;99.90;;;;;;5026514;28;20029;-74
2023/05/06 11:43:45;;;;;;;0.20;0.20;;;9.00;99.90;;;;;;5045006;28;20427;-74
2023/05/06 11:46:10;;;;;;;0.20;0.20;;;9.00;99.90;;;;;;5044378;28;20083;-75
2023/05/06 11:48:36;;;;;;;0.10;0.10;;;9.10;99.90;;;;;;5045185;28;20029;-75
2023/05/06 11:51:01;;;;;;;0.20;0.20;;;9.10;99.90;;;;;;5041108;28;20029;-74
2023/05/06 11:53:28;;;;;;;0.20;0.20;;;9.20;99.90;;;;;;5038787;28;20029;-75
2023/05/06 11:55:54;;;;;;;0.13;0.13;;;9.20;99.90;;;;;;5027556;28;20066;-75
2023/05/06 11:58:27;;;;;;;0.20;0.20;;;9.20;99.90;;;;;;5038414;28;20054;-75
2023/05/06 12:00:54;;;;;;;0.17;0.17;;;9.20;99.90;;;;;;5038946;28;20040;-74
2023/05/06 12:03:20;;;;;;;0.10;0.10;;;9.30;99.90;;;;;;5045878;28;20033;-75
2023/05/06 12:05:47;;;;;;;0.17;0.17;;;9.20;99.90;;;;;;5045747;28;20125;-75
2023/05/06 12:08:15;;;;;;;0.10;0.10;;;9.20;99.90;;;;;;5039327;28;20435;-75
2023/05/06 12:10:41;;;;;;;0.10;0.10;;;9.30;99.90;;;;;;5025960;28;20036;-75
2023/05/06 12:13:07;;;;;;;0.15;0.15;;;9.30;99.90;;;;;;5043316;28;20072;-75
2023/05/06 12:15:34;;;;;;;0.10;0.10;;;9.30;99.90;;;;;;5037445;28;20022;-75
2023/05/06 12:18:00;;;;;;;0.10;0.10;;;9.40;99.90;;;;;;5040391;28;20429;-76
2023/05/06 12:20:26;;;;;;;0.20;0.20;;;9.50;99.90;;;;;;5040569;28;20389;-75
2023/05/06 12:23:05;;;;;;;0.10;0.10;;;9.50;99.90;;;;;;5026085;28;20028;-76
2023/05/06 12:25:30;;;;;;;0.20;0.20;;;9.40;99.90;;;;;;5040733;28;20506;-76
2023/05/06 12:27:57;;;;;;;0.20;0.20;;;9.30;99.90;;;;;;5043288;28;20036;-75
2023/05/06 12:30:31;;;;;;;0.10;0.10;;;9.30;99.90;;;;;;5026590;28;20048;-75
2023/05/06 12:32:58;;;;;;;0.10;0.10;;;9.30;99.90;;;;;;5040223;28;20033;-76
2023/05/06 12:35:28;;;;;;;0.20;0.20;;;9.20;99.90;;;;;;5037651;28;20372;-76
2023/05/06 12:37:54;;;;;;;0.20;0.20;;;9.10;99.90;;;;;;5046749;28;20025;-76
2023/05/06 12:40:20;;;;;;;0.20;0.20;;;9.10;99.90;;;;;;5041389;28;20044;-76
2023/05/06 12:42:53;;;;;;;0.10;0.10;;;9.20;99.90;;;;;;5036990;28;20483;-76
2023/05/06 12:45:19;;;;;;;0.10;0.10;;;9.10;99.90;;;;;;5044012;28;20505;-76
2023/05/06 12:47:57;;;;;;;0.13;0.13;;;9.20;99.90;;;;;;5042389;28;20029;-76
2023/05/06 12:50:38;;;;;;;0.20;0.20;;;9.20;99.90;;;;;;5030773;28;20033;-75
2023/05/06 12:53:04;;;;;;;0.20;0.20;;;9.10;99.90;;;;;;5043866;28;20490;-76
2023/05/06 12:55:31;;;;;;;0.20;0.20;;;9.10;99.90;;;;;;5037767;28;20509;-75
2023/05/06 12:57:57;;;;;;;0.10;0.10;;;9.00;99.90;;;;;;5038231;28;20025;-76